Wetterdaten: Woche 10.11.14 - 16.11.14 (KW46)
Datum Zeit Temp. Aussen +5cm Feuchte Auss Luftdruck Regen Sonnenschein Regendauer Solar Windben
10.11.2014 00:00 8,9 C 7,2 C 93 % 1008,8 hPa 0,4 l/m 0,00 h 0,68 h 0 W/m 8,2 km/h (2 Bft)
10.11.2014 01:00 8,7 C 7,2 C 95 % 1008,9 hPa 0,4 l/m 0,00 h 0,93 h 0 W/m 9,5 km/h (2 Bft)
10.11.2014 02:00 8,7 C 7,2 C 96 % 1009,0 hPa 0,2 l/m 0,00 h 0,23 h 0 W/m 10,0 km/h (2 Bft)
10.11.2014 03:00 8,6 C 7,2 C 97 % 1008,9 hPa 0,2 l/m 0,00 h 0,47 h 0 W/m 9,4 km/h (2 Bft)
10.11.2014 04:00 8,7 C 7,2 C 97 % 1009,0 hPa 1,2 l/m 0,00 h 1,00 h 0 W/m 9,3 km/h (2 Bft)
10.11.2014 05:00 8,7 C 7,2 C 97 % 1008,7 hPa 0,0 l/m 0,00 h 0,27 h 0 W/m 9,5 km/h (2 Bft)
10.11.2014 06:00 8,7 C 7,8 C 98 % 1008,9 hPa 0,0 l/m 0,00 h 0,00 h 0 W/m 8,4 km/h (2 Bft)
10.11.2014 07:00 8,8 C 7,8 C 98 % 1009,4 hPa 0,0 l/m 0,00 h 0,00 h 0 W/m 8,9 km/h (2 Bft)
10.11.2014 08:00 8,9 C 7,7 C 98 % 1009,8 hPa 0,0 l/m 0,00 h 0,00 h 14 W/m 9,4 km/h (2 Bft)
10.11.2014 09:00 9,1 C 8,0 C 98 % 1010,0 hPa 0,0 l/m 0,87 h 0,00 h 157 W/m 10,9 km/h (2 Bft)
10.11.2014 10:00 10,4 C 9,0 C 99 % 1010,1 hPa 0,0 l/m 0,92 h 0,00 h 230 W/m 14,0 km/h (3 Bft)
10.11.2014 11:00 11,7 C 9,9 C 96 % 1010,0 hPa 0,0 l/m 0,80 h 0,00 h 254 W/m 15,8 km/h (3 Bft)
10.11.2014 12:00 13,0 C 10,9 C 85 % 1009,6 hPa 0,0 l/m 0,80 h 0,00 h 325 W/m 18,5 km/h (3 Bft)
10.11.2014 13:00 14,0 C 11,7 C 78 % 1009,2 hPa 0,0 l/m 0,77 h 0,00 h 285 W/m 16,8 km/h (3 Bft)
10.11.2014 14:00 13,9 C 11,4 C 73 % 1009,1 hPa 0,0 l/m 0,90 h 0,00 h 202 W/m 19,7 km/h (3 Bft)
10.11.2014 15:00 13,3 C 10,7 C 71 % 1009,2 hPa 0,0 l/m 0,60 h 0,00 h 91 W/m 19,3 km/h (3 Bft)
10.11.2014 16:00 12,1 C 9,0 C 73 % 1009,5 hPa 0,0 l/m 0,07 h 0,00 h 18 W/m 10,8 km/h (2 Bft)
10.11.2014 17:00 10,8 C 6,8 C 78 % 1009,7 hPa 0,0 l/m 0,00 h 0,00 h 0 W/m 6,2 km/h (2 Bft)
10.11.2014 18:00 8,9 C 5,5 C 83 % 1009,8 hPa 0,0 l/m 0,00 h 0,00 h 0 W/m 6,4 km/h (2 Bft)
10.11.2014 19:00 7,8 C 5,0 C 87 % 1010,0 hPa 0,0 l/m 0,00 h 0,00 h 0 W/m 7,6 km/h (2 Bft)
10.11.2014 20:00 7,2 C 4,8 C 89 % 1010,0 hPa 0,0 l/m 0,00 h 0,00 h 0 W/m 7,0 km/h (2 Bft)
10.11.2014 21:00 7,1 C 5,1 C 91 % 1010,1 hPa 0,0 l/m 0,00 h 0,00 h 0 W/m 8,2 km/h (2 Bft)
10.11.2014 22:00 6,9 C 5,0 C 93 % 1010,0 hPa 0,0 l/m 0,00 h 0,00 h 0 W/m 8,4 km/h (2 Bft)
10.11.2014 23:00 6,5 C 4,8 C 94 % 1010,0 hPa 0,0 l/m 0,00 h 0,00 h 0 W/m 8,7 km/h (2 Bft)
11.11.2014 00:00 6,2 C 4,4 C 95 % 1009,9 hPa 0,0 l/m 0,00 h 0,00 h 0 W/m 9,1 km/h (2 Bft)
11.11.2014 01:00 6,3 C 4,8 C 96 % 1009,7 hPa 0,0 l/m 0,00 h 0,00 h 0 W/m 14,5 km/h (3 Bft)
11.11.2014 02:00 6,6 C 5,1 C 97 % 1009,6 hPa 0,0 l/m 0,00 h 0,00 h 0 W/m 17,1 km/h (3 Bft)
11.11.2014 03:00 6,6 C 5,0 C 97 % 1009,4 hPa 0,2 l/m 0,00 h 0,07 h 0 W/m 18,8 km/h (3 Bft)
11.11.2014 04:00 6,6 C 5,0 C 97 % 1009,0 hPa 0,0 l/m 0,00 h 0,00 h 0 W/m 19,0 km/h (3 Bft)
11.11.2014 05:00 7,1 C 6,3 C 98 % 1008,6 hPa 0,0 l/m 0,00 h 0,00 h 0 W/m 22,9 km/h (4 Bft)
11.11.2014 06:00 8,0 C 7,1 C 98 % 1008,1 hPa 0,0 l/m 0,00 h 0,00 h 0 W/m 23,7 km/h (4 Bft)
11.11.2014 07:00 8,6 C 7,8 C 98 % 1007,6 hPa 0,0 l/m 0,00 h 0,00 h 7 W/m 23,3 km/h (4 Bft)
11.11.2014 08:00 9,0 C 7,9 C 97 % 1007,4 hPa 0,0 l/m 0,20 h 0,00 h 40 W/m 24,3 km/h (4 Bft)
11.11.2014 09:00 9,3 C 8,6 C 95 % 1007,3 hPa 0,0 l/m 0,00 h 0,00 h 60 W/m 22,4 km/h (4 Bft)
11.11.2014 10:00 9,7 C 8,9 C 92 % 1006,8 hPa 0,0 l/m 0,00 h 0,00 h 64 W/m 24,3 km/h (4 Bft)
11.11.2014 11:00 10,0 C 8,4 C 91 % 1006,1 hPa 0,4 l/m 0,00 h 0,70 h 58 W/m 23,6 km/h (4 Bft)
11.11.2014 12:00 9,9 C 8,2 C 94 % 1005,3 hPa 1,2 l/m 0,00 h 0,90 h 43 W/m 28,4 km/h (4 Bft)
11.11.2014 13:00 10,0 C 8,7 C 95 % 1004,7 hPa 0,2 l/m 0,00 h 0,40 h 43 W/m 22,5 km/h (4 Bft)
11.11.2014 14:00 10,4 C 9,0 C 96 % 1004,1 hPa 0,2 l/m 0,00 h 0,27 h 48 W/m 20,7 km/h (4 Bft)
11.11.2014 15:00 11,0 C 9,4 C 95 % 1003,9 hPa 0,0 l/m 0,00 h 0,07 h 48 W/m 16,9 km/h (3 Bft)
11.11.2014 16:00 11,3 C 9,4 C 94 % 1003,6 hPa 0,0 l/m 0,00 h 0,00 h 15 W/m 14,1 km/h (3 Bft)
11.11.2014 17:00 11,3 C 9,4 C 93 % 1003,4 hPa 0,0 l/m 0,00 h 0,00 h 0 W/m 13,6 km/h (3 Bft)
11.11.2014 18:00 11,1 C 8,8 C 91 % 1002,9 hPa 0,0 l/m 0,00 h 0,00 h 0 W/m 10,8 km/h (2 Bft)
11.11.2014 19:00 10,4 C 7,9 C 91 % 1003,0 hPa 0,0 l/m 0,00 h 0,00 h 0 W/m 12,6 km/h (3 Bft)
11.11.2014 20:00 9,9 C 8,0 C 91 % 1003,0 hPa 0,0 l/m 0,00 h 0,00 h 0 W/m 14,3 km/h (3 Bft)
11.11.2014 21:00 9,8 C 7,9 C 90 % 1002,9 hPa 0,0 l/m 0,00 h 0,00 h 0 W/m 25,2 km/h (4 Bft)
11.11.2014 22:00 9,5 C 7,8 C 90 % 1002,4 hPa 0,0 l/m 0,00 h 0,00 h 0 W/m 26,8 km/h (4 Bft)
11.11.2014 23:00 9,1 C 7,7 C 91 % 1002,1 hPa 0,0 l/m 0,00 h 0,00 h 0 W/m 22,4 km/h (4 Bft)
12.11.2014 00:00 8,7 C 7,2 C 92 % 1002,2 hPa 0,0 l/m 0,00 h 0,00 h 0 W/m 20,4 km/h (4 Bft)
12.11.2014 01:00 8,4 C 7,2 C 93 % 1002,0 hPa 0,0 l/m 0,00 h 0,00 h 0 W/m 22,6 km/h (4 Bft)
12.11.2014 02:00 8,4 C 6,9 C 93 % 1001,7 hPa 0,0 l/m 0,00 h 0,00 h 0 W/m 20,5 km/h (4 Bft)
12.11.2014 03:00 8,1 C 6,7 C 94 % 1001,4 hPa 0,0 l/m 0,00 h 0,00 h 0 W/m 18,3 km/h (3 Bft)
12.11.2014 04:00 7,9 C 6,6 C 94 % 1001,1 hPa 0,0 l/m 0,00 h 0,00 h 0 W/m 14,1 km/h (3 Bft)
12.11.2014 05:00 7,9 C 6,6 C 95 % 1001,4 hPa 0,0 l/m 0,00 h 0,00 h 0 W/m 16,8 km/h (3 Bft)
12.11.2014 06:00 7,9 C 6,7 C 95 % 1001,7 hPa 0,0 l/m 0,00 h 0,00 h 0 W/m 17,6 km/h (3 Bft)
12.11.2014 07:00 8,1 C 6,9 C 95 % 1001,9 hPa 0,0 l/m 0,00 h 0,00 h 5 W/m 17,0 km/h (3 Bft)
12.11.2014 08:00 8,3 C 7,3 C 95 % 1002,4 hPa 0,0 l/m 0,00 h 0,00 h 21 W/m 14,1 km/h (3 Bft)
12.11.2014 09:00 8,7 C 8,0 C 95 % 1002,9 hPa 0,0 l/m 0,00 h 0,00 h 57 W/m 14,3 km/h (3 Bft)
12.11.2014 10:00 9,3 C 8,9 C 95 % 1003,3 hPa 0,0 l/m 0,00 h 0,00 h 83 W/m 15,3 km/h (3 Bft)
12.11.2014 11:00 10,1 C 9,8 C 95 % 1003,7 hPa 0,0 l/m 0,00 h 0,00 h 98 W/m 12,6 km/h (3 Bft)
12.11.2014 12:00 10,7 C 9,4 C 93 % 1003,7 hPa 0,2 l/m 0,00 h 0,40 h 74 W/m 9,8 km/h (2 Bft)
12.11.2014 13:00 10,7 C 9,2 C 94 % 1003,7 hPa 0,0 l/m 0,00 h 0,00 h 67 W/m 10,8 km/h (2 Bft)
12.11.2014 14:00 10,7 C 9,4 C 95 % 1003,9 hPa 0,0 l/m 0,00 h 0,20 h 60 W/m 9,7 km/h (2 Bft)
12.11.2014 15:00 10,8 C 9,2 C 96 % 1004,1 hPa 0,0 l/m 0,00 h 0,00 h 44 W/m 11,0 km/h (2 Bft)
12.11.2014 16:00 10,4 C 8,6 C 96 % 1004,8 hPa 0,0 l/m 0,00 h 0,00 h 12 W/m 11,2 km/h (2 Bft)
12.11.2014 17:00 9,9 C 8,0 C 96 % 1005,3 hPa 0,0 l/m 0,00 h 0,00 h 0 W/m 8,2 km/h (2 Bft)
12.11.2014 18:00 9,5 C 7,8 C 96 % 1005,8 hPa 0,0 l/m 0,00 h 0,00 h 0 W/m 6,4 km/h (2 Bft)
12.11.2014 19:00 9,3 C 7,8 C 97 % 1006,5 hPa 0,0 l/m 0,00 h 0,00 h 0 W/m 6,8 km/h (2 Bft)
12.11.2014 20:00 9,2 C 7,4 C 97 % 1007,1 hPa 0,0 l/m 0,00 h 0,00 h 0 W/m 5,6 km/h (1 Bft)
12.11.2014 21:00 8,6 C 6,3 C 97 % 1007,7 hPa 0,0 l/m 0,00 h 0,00 h 0 W/m 4,3 km/h (1 Bft)
12.11.2014 22:00 7,9 C 6,3 C 97 % 1008,2 hPa 0,0 l/m 0,00 h 0,00 h 0 W/m 6,8 km/h (2 Bft)
12.11.2014 23:00 8,0 C 6,7 C 97 % 1008,6 hPa 0,0 l/m 0,00 h 0,00 h 0 W/m 3,8 km/h (1 Bft)
13.11.2014 00:00 7,9 C 6,6 C 97 % 1009,1 hPa 0,0 l/m 0,00 h 0,00 h 0 W/m 4,4 km/h (1 Bft)
13.11.2014 01:00 7,7 C 5,7 C 98 % 1009,9 hPa 0,0 l/m 0,00 h 0,00 h 0 W/m 2,4 km/h (1 Bft)
13.11.2014 02:00 7,1 C 5,1 C 97 % 1010,4 hPa 0,0 l/m 0,00 h 0,00 h 0 W/m 3,1 km/h (1 Bft)
13.11.2014 03:00 6,5 C 4,6 C 97 % 1010,7 hPa 0,0 l/m 0,00 h 0,00 h 0 W/m 2,5 km/h (1 Bft)
13.11.2014 04:00 6,1 C 4,8 C 98 % 1010,9 hPa 0,0 l/m 0,00 h 0,00 h 0 W/m 3,6 km/h (1 Bft)
13.11.2014 05:00 6,2 C 5,1 C 98 % 1011,0 hPa 0,2 l/m 0,00 h 0,00 h 0 W/m 5,5 km/h (1 Bft)
13.11.2014 06:00 6,5 C 5,5 C 98 % 1011,1 hPa 0,0 l/m 0,00 h 0,00 h 0 W/m 5,9 km/h (2 Bft)
13.11.2014 07:00 6,6 C 4,6 C 98 % 1011,2 hPa 0,0 l/m 0,00 h 0,00 h 5 W/m 3,8 km/h (1 Bft)
13.11.2014 08:00 5,9 C 4,4 C 98 % 1011,7 hPa 0,0 l/m 0,73 h 0,00 h 52 W/m 3,7 km/h (1 Bft)
13.11.2014 09:00 6,8 C 5,9 C 98 % 1012,1 hPa 0,0 l/m 1,00 h 0,00 h 158 W/m 5,8 km/h (2 Bft)
13.11.2014 10:00 9,0 C 7,3 C 99 % 1012,4 hPa 0,0 l/m 1,00 h 0,00 h 253 W/m 7,0 km/h (2 Bft)
13.11.2014 11:00 10,9 C 8,7 C 99 % 1012,4 hPa 0,0 l/m 0,87 h 0,00 h 274 W/m 10,7 km/h (2 Bft)
13.11.2014 12:00 12,9 C 10,5 C 91 % 1012,0 hPa 0,0 l/m 0,97 h 0,00 h 332 W/m 14,6 km/h (3 Bft)
13.11.2014 13:00 14,1 C 11,2 C 82 % 1012,0 hPa 0,0 l/m 1,00 h 0,00 h 285 W/m 14,4 km/h (3 Bft)
13.11.2014 14:00 14,3 C 11,4 C 79 % 1011,8 hPa 0,0 l/m 0,97 h 0,00 h 186 W/m 13,5 km/h (3 Bft)
13.11.2014 15:00 13,3 C 10,1 C 82 % 1011,7 hPa 0,0 l/m 0,27 h 0,00 h 65 W/m 11,3 km/h (2 Bft)
13.11.2014 16:00 11,8 C 8,3 C 86 % 1011,6 hPa 0,0 l/m 0,00 h 0,00 h 15 W/m 6,0 km/h (2 Bft)
13.11.2014 17:00 10,4 C 7,4 C 90 % 1011,7 hPa 0,0 l/m 0,00 h 0,00 h 0 W/m 10,8 km/h (2 Bft)
13.11.2014 18:00 9,7 C 7,5 C 93 % 1012,0 hPa 0,0 l/m 0,00 h 0,00 h 0 W/m 12,6 km/h (3 Bft)
13.11.2014 19:00 8,9 C 6,9 C 94 % 1012,2 hPa 0,0 l/m 0,00 h 0,00 h 0 W/m 12,2 km/h (2 Bft)
13.11.2014 20:00 8,2 C 6,5 C 94 % 1012,1 hPa 0,0 l/m 0,00 h 0,00 h 0 W/m 12,5 km/h (3 Bft)
13.11.2014 21:00 7,6 C 5,7 C 94 % 1012,2 hPa 0,0 l/m 0,00 h 0,00 h 0 W/m 8,7 km/h (2 Bft)
13.11.2014 22:00 7,2 C 5,5 C 95 % 1011,9 hPa 0,0 l/m 0,00 h 0,00 h 0 W/m 11,0 km/h (2 Bft)
13.11.2014 23:00 8,2 C 7,4 C 96 % 1011,4 hPa 0,0 l/m 0,00 h 0,00 h 0 W/m 17,0 km/h (3 Bft)
14.11.2014 00:00 9,9 C 8,9 C 96 % 1011,2 hPa 0,0 l/m 0,00 h 0,00 h 0 W/m 24,4 km/h (4 Bft)
14.11.2014 01:00 10,3 C 8,9 C 94 % 1011,0 hPa 0,0 l/m 0,00 h 0,00 h 0 W/m 22,0 km/h (4 Bft)
14.11.2014 02:00 10,3 C 8,9 C 92 % 1010,8 hPa 0,0 l/m 0,00 h 0,00 h 0 W/m 18,7 km/h (3 Bft)
14.11.2014 03:00 10,4 C 9,3 C 91 % 1010,2 hPa 0,0 l/m 0,00 h 0,00 h 0 W/m 23,1 km/h (4 Bft)
14.11.2014 04:00 10,4 C 9,1 C 89 % 1009,5 hPa 0,0 l/m 0,00 h 0,00 h 0 W/m 22,8 km/h (4 Bft)
14.11.2014 05:00 10,5 C 9,3 C 88 % 1008,8 hPa 0,0 l/m 0,00 h 0,00 h 0 W/m 30,9 km/h (5 Bft)
14.11.2014 06:00 10,4 C 8,9 C 89 % 1008,2 hPa 0,0 l/m 0,00 h 0,00 h 0 W/m 29,7 km/h (5 Bft)
14.11.2014 07:00 9,8 C 8,1 C 88 % 1007,8 hPa 0,0 l/m 0,00 h 0,07 h 5 W/m 23,8 km/h (4 Bft)
14.11.2014 08:00 10,0 C 9,0 C 89 % 1007,9 hPa 0,0 l/m 0,10 h 0,00 h 37 W/m 28,1 km/h (4 Bft)
14.11.2014 09:00 10,8 C 9,8 C 87 % 1008,0 hPa 0,0 l/m 0,03 h 0,00 h 63 W/m 28,3 km/h (4 Bft)
14.11.2014 10:00 11,5 C 10,2 C 84 % 1007,0 hPa 0,0 l/m 0,60 h 0,00 h 173 W/m 32,4 km/h (5 Bft)
14.11.2014 11:00 12,8 C 11,4 C 80 % 1006,1 hPa 0,0 l/m 1,00 h 0,00 h 293 W/m 36,3 km/h (5 Bft)
14.11.2014 12:00 13,5 C 11,7 C 77 % 1005,3 hPa 0,0 l/m 0,63 h 0,00 h 196 W/m 30,7 km/h (5 Bft)
14.11.2014 13:00 13,1 C 11,8 C 79 % 1005,2 hPa 0,0 l/m 0,00 h 0,00 h 142 W/m 25,4 km/h (4 Bft)
14.11.2014 14:00 13,1 C 11,9 C 80 % 1004,7 hPa 0,0 l/m 0,40 h 0,00 h 130 W/m 18,6 km/h (3 Bft)
14.11.2014 15:00 13,0 C 11,4 C 81 % 1004,6 hPa 0,0 l/m 0,10 h 0,00 h 72 W/m 19,4 km/h (3 Bft)
14.11.2014 16:00 12,3 C 10,4 C 82 % 1004,5 hPa 0,0 l/m 0,00 h 0,00 h 19 W/m 16,3 km/h (3 Bft)
14.11.2014 17:00 11,6 C 10,0 C 85 % 1004,5 hPa 0,0 l/m 0,00 h 0,00 h 0 W/m 18,9 km/h (3 Bft)
14.11.2014 18:00 11,3 C 9,8 C 86 % 1004,7 hPa 0,0 l/m 0,00 h 0,00 h 0 W/m 13,5 km/h (3 Bft)
14.11.2014 19:00 11,2 C 9,8 C 87 % 1004,5 hPa 0,0 l/m 0,00 h 0,00 h 0 W/m 16,1 km/h (3 Bft)
14.11.2014 20:00 11,0 C 9,4 C 88 % 1004,6 hPa 0,0 l/m 0,00 h 0,00 h 0 W/m 12,1 km/h (2 Bft)
14.11.2014 21:00 10,7 C 9,4 C 89 % 1004,7 hPa 0,0 l/m 0,00 h 0,00 h 0 W/m 11,5 km/h (2 Bft)
14.11.2014 22:00 10,7 C 9,1 C 90 % 1004,8 hPa 0,0 l/m 0,00 h 0,00 h 0 W/m 9,4 km/h (2 Bft)
14.11.2014 23:00 10,4 C 9,1 C 91 % 1004,7 hPa 0,0 l/m 0,00 h 0,13 h 0 W/m 9,7 km/h (2 Bft)
15.11.2014 00:00 10,3 C 8,4 C 92 % 1004,2 hPa 0,0 l/m 0,00 h 0,12 h 0 W/m 11,3 km/h (2 Bft)
15.11.2014 01:00 10,0 C 8,3 C 93 % 1003,7 hPa 0,0 l/m 0,00 h 0,00 h 0 W/m 11,0 km/h (2 Bft)
15.11.2014 02:00 9,9 C 8,6 C 93 % 1003,1 hPa 0,0 l/m 0,00 h 0,00 h 0 W/m 10,4 km/h (2 Bft)
15.11.2014 03:00 9,9 C 8,3 C 94 % 1002,6 hPa 0,2 l/m 0,00 h 0,70 h 0 W/m 10,1 km/h (2 Bft)
15.11.2014 04:00 9,7 C 7,8 C 94 % 1002,1 hPa 0,0 l/m 0,00 h 0,00 h 0 W/m 5,3 km/h (1 Bft)
15.11.2014 05:00 9,4 C 7,8 C 95 % 1001,4 hPa 0,2 l/m 0,00 h 0,30 h 0 W/m 5,0 km/h (1 Bft)
15.11.2014 06:00 9,3 C 7,8 C 95 % 1001,8 hPa 0,0 l/m 0,00 h 0,27 h 0 W/m 4,6 km/h (1 Bft)
15.11.2014 07:00 9,2 C 7,8 C 96 % 1001,5 hPa 0,0 l/m 0,00 h 0,00 h 0 W/m 9,5 km/h (2 Bft)
15.11.2014 08:00 9,2 C 7,8 C 96 % 1001,3 hPa 0,0 l/m 0,00 h 0,03 h 9 W/m 14,9 km/h (3 Bft)
15.11.2014 09:00 9,4 C 7,8 C 95 % 1001,6 hPa 0,2 l/m 0,00 h 0,17 h 27 W/m 20,4 km/h (4 Bft)
15.11.2014 10:00 9,6 C 8,1 C 94 % 1001,5 hPa 0,4 l/m 0,00 h 0,43 h 65 W/m 18,0 km/h (3 Bft)
15.11.2014 11:00 10,0 C 8,9 C 95 % 1001,4 hPa 0,0 l/m 0,17 h 0,00 h 121 W/m 21,7 km/h (4 Bft)
15.11.2014 12:00 10,4 C 8,9 C 93 % 1000,8 hPa 0,0 l/m 0,00 h 0,00 h 65 W/m 18,6 km/h (3 Bft)
15.11.2014 13:00 10,6 C 9,4 C 93 % 1000,2 hPa 0,0 l/m 0,00 h 0,00 h 68 W/m 18,5 km/h (3 Bft)
15.11.2014 14:00 11,0 C 9,4 C 93 % 1000,7 hPa 0,0 l/m 0,00 h 0,00 h 49 W/m 16,9 km/h (3 Bft)
15.11.2014 15:00 11,1 C 9,4 C 94 % 1000,7 hPa 0,0 l/m 0,00 h 0,00 h 31 W/m 10,1 km/h (2 Bft)
15.11.2014 16:00 10,8 C 9,2 C 95 % 1001,1 hPa 0,0 l/m 0,00 h 0,00 h 5 W/m 10,8 km/h (2 Bft)
15.11.2014 17:00 10,4 C 8,9 C 95 % 1001,5 hPa 0,0 l/m 0,00 h 0,00 h 0 W/m 11,9 km/h (2 Bft)
15.11.2014 18:00 9,9 C 8,2 C 95 % 1001,9 hPa 0,0 l/m 0,00 h 0,00 h 0 W/m 5,8 km/h (2 Bft)
15.11.2014 19:00 9,5 C 7,5 C 95 % 1002,3 hPa 0,0 l/m 0,00 h 0,00 h 0 W/m 3,1 km/h (1 Bft)
15.11.2014 20:00 8,8 C 6,5 C 95 % 1001,8 hPa 0,0 l/m 0,00 h 0,00 h 0 W/m 2,9 km/h (1 Bft)
15.11.2014 21:00 8,1 C 6,2 C 95 % 1002,1 hPa 0,0 l/m 0,00 h 0,00 h 0 W/m 1,5 km/h (1 Bft)
15.11.2014 22:00 7,8 C 6,7 C 95 % 1002,4 hPa 0,0 l/m 0,00 h 0,00 h 0 W/m 3,3 km/h (1 Bft)
15.11.2014 23:00 7,8 C 6,7 C 96 % 1002,2 hPa 0,0 l/m 0,00 h 0,00 h 0 W/m 2,0 km/h (1 Bft)
16.11.2014 00:00 7,8 C 6,7 C 96 % 1002,1 hPa 0,0 l/m 0,00 h 0,00 h 0 W/m 2,7 km/h (1 Bft)
16.11.2014 01:00 7,9 C 6,7 C 97 % 1001,8 hPa 0,0 l/m 0,00 h 0,00 h 0 W/m 0,9 km/h (0 Bft)
16.11.2014 02:00 7,8 C 6,7 C 96 % 1001,6 hPa 0,4 l/m 0,00 h 0,53 h 0 W/m 1,9 km/h (1 Bft)
16.11.2014 03:00 7,7 C 6,7 C 97 % 1001,2 hPa 0,6 l/m 0,00 h 1,00 h 0 W/m 1,1 km/h (1 Bft)
16.11.2014 04:00 7,7 C 6,7 C 97 % 1001,3 hPa 1,2 l/m 0,00 h 0,83 h 0 W/m 2,8 km/h (1 Bft)
16.11.2014 05:00 7,8 C 6,7 C 97 % 1001,3 hPa 1,0 l/m 0,00 h 0,00 h 0 W/m 4,9 km/h (1 Bft)
16.11.2014 06:00 7,9 C 6,7 C 97 % 1001,0 hPa 0,2 l/m 0,00 h 0,00 h 0 W/m 5,3 km/h (1 Bft)
Min-Datum _ 13.11.14 13.11.14 10.11.14 15.11.14 - - - - 10.11.14
_ Min-Zeit 08:40 07:46 15:16 13:02 - - - - 03:08
Minimum _ 5,8 C 3,9 C 69 % 1000,1 hPa - - - - 0,0 km/h (0 Bft)
Max-Datum _ 13.11.14 10.11.14 10.11.14 13.11.14 10.11.14 10.11.14 10.11.14 10.11.14 14.11.14
_ Max-Zeit 14:00 13:30 09:42 10:38 04:06 09:08 00:00 12:06 11:02
Maximum _ 14,4 C 12,2 C 99 % 1012,6 hPa 1,2 l/m 0,03 h 0,03 h 448 W/m 54,4 km/h
SO (7 Bft)
Durchschnitt _ 9,5 C 7,9 C 93 % 1006,3 hPa #9,4 l/m #15:45 h #11:16 h 99 W/m 13,4 km/h (3 Bft)
© 2014 W. Hausmann